sensor_id;sensor_type;location;lat;lon;timestamp;pressure;altitude;pressure_sealevel;temperature;humidity
70815;BME280;58428;49.478;10.986;2023-01-26T00:01:21;99055.91;;;1.79;100.00
70815;BME280;58428;49.478;10.986;2023-01-26T00:03:50;99056.16;;;1.78;100.00
70815;BME280;58428;49.478;10.986;2023-01-26T00:06:18;99060.44;;;1.79;100.00
70815;BME280;58428;49.478;10.986;2023-01-26T00:08:46;99057.00;;;1.83;100.00
70815;BME280;58428;49.478;10.986;2023-01-26T00:11:19;99053.53;;;1.83;100.00
70815;BME280;58428;49.478;10.986;2023-01-26T00:13:49;99043.13;;;1.81;100.00
70815;BME280;58428;49.478;10.986;2023-01-26T00:16:18;99044.28;;;1.90;100.00
70815;BME280;58428;49.478;10.986;2023-01-26T00:18:43;99027.50;;;1.99;100.00
70815;BME280;58428;49.478;10.986;2023-01-26T00:21:14;99028.03;;;1.96;100.00
70815;BME280;58428;49.478;10.986;2023-01-26T00:23:45;99024.56;;;1.96;100.00
70815;BME280;58428;49.478;10.986;2023-01-26T00:26:19;99033.13;;;2.03;100.00
70815;BME280;58428;49.478;10.986;2023-01-26T00:28:45;99025.66;;;2.00;100.00
70815;BME280;58428;49.478;10.986;2023-01-26T00:31:14;99025.13;;;1.98;100.00
70815;BME280;58428;49.478;10.986;2023-01-26T00:33:42;99015.03;;;1.74;100.00
70815;BME280;58428;49.478;10.986;2023-01-26T00:36:18;99007.53;;;1.66;100.00
70815;BME280;58428;49.478;10.986;2023-01-26T00:38:45;99001.22;;;1.82;100.00
70815;BME280;58428;49.478;10.986;2023-01-26T00:41:15;99001.22;;;1.82;100.00
70815;BME280;58428;49.478;10.986;2023-01-26T00:44:00;98994.78;;;1.73;100.00
70815;BME280;58428;49.478;10.986;2023-01-26T00:46:26;99001.97;;;1.72;100.00
70815;BME280;58428;49.478;10.986;2023-01-26T00:48:51;98987.56;;;1.73;100.00
70815;BME280;58428;49.478;10.986;2023-01-26T00:51:17;98986.38;;;1.90;100.00
70815;BME280;58428;49.478;10.986;2023-01-26T00:53:42;98981.44;;;1.73;100.00
70815;BME280;58428;49.478;10.986;2023-01-26T00:56:15;98972.72;;;1.82;100.00
70815;BME280;58428;49.478;10.986;2023-01-26T00:58:55;98970.31;;;1.81;100.00
70815;BME280;58428;49.478;10.986;2023-01-26T01:01:21;98980.66;;;1.77;100.00
70815;BME280;58428;49.478;10.986;2023-01-26T01:03:47;98968.97;;;1.83;100.00
70815;BME280;58428;49.478;10.986;2023-01-26T01:06:18;98965.31;;;1.94;100.00
70815;BME280;58428;49.478;10.986;2023-01-26T01:08:44;98955.03;;;1.76;100.00
70815;BME280;58428;49.478;10.986;2023-01-26T01:11:10;98958.00;;;1.75;100.00
70815;BME280;58428;49.478;10.986;2023-01-26T01:13:36;98959.03;;;1.74;100.00
70815;BME280;58428;49.478;10.986;2023-01-26T01:16:12;98958.59;;;1.86;100.00
70815;BME280;58428;49.478;10.986;2023-01-26T01:18:38;98947.03;;;1.71;100.00
70815;BME280;58428;49.478;10.986;2023-01-26T01:21:09;98949.88;;;1.60;100.00
70815;BME280;58428;49.478;10.986;2023-01-26T01:23:37;98947.63;;;1.47;100.00
70815;BME280;58428;49.478;10.986;2023-01-26T01:26:03;98957.47;;;1.42;100.00
70815;BME280;58428;49.478;10.986;2023-01-26T01:28:30;98949.84;;;1.55;100.00
70815;BME280;58428;49.478;10.986;2023-01-26T01:30:56;98955.16;;;1.19;100.00
70815;BME280;58428;49.478;10.986;2023-01-26T01:33:22;98951.47;;;1.25;100.00
70815;BME280;58428;49.478;10.986;2023-01-26T01:36:14;98948.06;;;1.03;100.00
70815;BME280;58428;49.478;10.986;2023-01-26T01:38:45;98948.00;;;1.24;100.00
70815;BME280;58428;49.478;10.986;2023-01-26T01:41:17;98940.66;;;1.10;100.00
70815;BME280;58428;49.478;10.986;2023-01-26T01:43:44;98942.69;;;1.24;100.00
70815;BME280;58428;49.478;10.986;2023-01-26T01:49:25;98938.44;;;1.28;100.00
70815;BME280;58428;49.478;10.986;2023-01-26T01:52:05;98934.94;;;1.23;100.00
70815;BME280;58428;49.478;10.986;2023-01-26T01:54:57;98941.28;;;1.17;100.00
70815;BME280;58428;49.478;10.986;2023-01-26T01:57:31;98933.59;;;1.20;100.00
70815;BME280;58428;49.478;10.986;2023-01-26T02:00:11;98936.31;;;1.30;100.00
70815;BME280;58428;49.478;10.986;2023-01-26T02:02:38;98935.63;;;1.45;100.00
70815;BME280;58428;49.478;10.986;2023-01-26T02:05:25;98937.28;;;1.50;100.00
70815;BME280;58428;49.478;10.986;2023-01-26T02:07:56;98933.50;;;1.46;100.00
70815;BME280;58428;49.478;10.986;2023-01-26T02:10:22;98929.25;;;1.46;100.00
70815;BME280;58428;49.478;10.986;2023-01-26T02:12:54;98934.09;;;1.53;100.00
70815;BME280;58428;49.478;10.986;2023-01-26T02:15:21;98931.69;;;1.52;100.00
70815;BME280;58428;49.478;10.986;2023-01-26T02:17:46;98927.69;;;1.49;100.00
70815;BME280;58428;49.478;10.986;2023-01-26T02:28:23;98929.34;;;1.60;100.00
70815;BME280;58428;49.478;10.986;2023-01-26T02:30:49;98927.84;;;1.74;100.00
70815;BME280;58428;49.478;10.986;2023-01-26T02:33:33;98924.72;;;1.82;100.00
70815;BME280;58428;49.478;10.986;2023-01-26T02:36:01;98914.47;;;1.69;100.00
70815;BME280;58428;49.478;10.986;2023-01-26T02:38:41;98901.63;;;1.61;100.00
70815;BME280;58428;49.478;10.986;2023-01-26T02:41:13;98911.50;;;1.61;100.00
70815;BME280;58428;49.478;10.986;2023-01-26T02:44:04;98901.94;;;1.65;100.00
70815;BME280;58428;49.478;10.986;2023-01-26T02:46:31;98901.66;;;1.66;100.00
70815;BME280;58428;49.478;10.986;2023-01-26T02:48:58;98897.81;;;1.47;100.00
70815;BME280;58428;49.478;10.986;2023-01-26T02:51:53;98900.28;;;1.59;100.00
70815;BME280;58428;49.478;10.986;2023-01-26T02:54:19;98894.72;;;1.65;100.00
70815;BME280;58428;49.478;10.986;2023-01-26T02:57:05;98898.13;;;1.56;100.00
70815;BME280;58428;49.478;10.986;2023-01-26T02:59:30;98894.84;;;1.44;100.00
70815;BME280;58428;49.478;10.986;2023-01-26T03:01:57;98893.44;;;1.32;100.00
70815;BME280;58428;49.478;10.986;2023-01-26T03:04:23;98890.78;;;1.37;100.00
70815;BME280;58428;49.478;10.986;2023-01-26T03:06:49;98886.72;;;1.29;100.00
70815;BME280;58428;49.478;10.986;2023-01-26T03:09:15;98889.03;;;1.16;100.00
70815;BME280;58428;49.478;10.986;2023-01-26T03:11:41;98887.00;;;1.28;100.00
70815;BME280;58428;49.478;10.986;2023-01-26T03:14:08;98884.03;;;1.24;100.00
70815;BME280;58428;49.478;10.986;2023-01-26T03:16:33;98881.88;;;1.21;100.00
70815;BME280;58428;49.478;10.986;2023-01-26T03:18:59;98875.38;;;1.08;100.00
70815;BME280;58428;49.478;10.986;2023-01-26T03:21:27;98875.16;;;1.14;100.00
70815;BME280;58428;49.478;10.986;2023-01-26T03:24:12;98874.41;;;1.18;100.00
70815;BME280;58428;49.478;10.986;2023-01-26T03:26:56;98873.88;;;1.16;100.00
70815;BME280;58428;49.478;10.986;2023-01-26T03:29:40;98873.88;;;1.16;100.00
70815;BME280;58428;49.478;10.986;2023-01-26T03:32:07;98873.31;;;1.14;100.00
70815;BME280;58428;49.478;10.986;2023-01-26T03:34:32;98869.00;;;1.09;100.00
70815;BME280;58428;49.478;10.986;2023-01-26T03:36:59;98864.94;;;1.01;100.00
70815;BME280;58428;49.478;10.986;2023-01-26T03:39:25;98865.31;;;1.14;100.00
70815;BME280;58428;49.478;10.986;2023-01-26T03:42:09;98869.28;;;1.12;100.00
70815;BME280;58428;49.478;10.986;2023-01-26T03:44:53;98865.13;;;1.26;100.00
70815;BME280;58428;49.478;10.986;2023-01-26T03:47:37;98864.31;;;1.25;100.00
70815;BME280;58428;49.478;10.986;2023-01-26T03:50:21;98861.09;;;1.23;100.00
70815;BME280;58428;49.478;10.986;2023-01-26T03:53:18;98862.66;;;1.14;100.00
70815;BME280;58428;49.478;10.986;2023-01-26T03:56:09;98862.13;;;1.17;100.00
70815;BME280;58428;49.478;10.986;2023-01-26T03:59:01;98856.56;;;1.19;100.00
70815;BME280;58428;49.478;10.986;2023-01-26T04:01:35;98860.56;;;1.21;100.00
70815;BME280;58428;49.478;10.986;2023-01-26T04:04:04;98849.41;;;1.29;100.00
70815;BME280;58428;49.478;10.986;2023-01-26T04:06:49;98855.94;;;1.48;100.00
70815;BME280;58428;49.478;10.986;2023-01-26T04:09:34;98856.19;;;1.42;100.00
70815;BME280;58428;49.478;10.986;2023-01-26T04:12:06;98853.34;;;1.58;100.00
70815;BME280;58428;49.478;10.986;2023-01-26T04:14:31;98857.81;;;1.47;100.00
70815;BME280;58428;49.478;10.986;2023-01-26T04:17:15;98863.84;;;1.33;100.00
70815;BME280;58428;49.478;10.986;2023-01-26T04:19:59;98858.56;;;1.38;100.00
70815;BME280;58428;49.478;10.986;2023-01-26T04:22:43;98859.50;;;1.22;100.00
70815;BME280;58428;49.478;10.986;2023-01-26T04:25:19;98857.34;;;1.19;100.00
70815;BME280;58428;49.478;10.986;2023-01-26T04:27:47;98862.97;;;1.23;100.00
70815;BME280;58428;49.478;10.986;2023-01-26T04:30:13;98860.50;;;1.11;100.00
70815;BME280;58428;49.478;10.986;2023-01-26T04:32:39;98856.00;;;1.17;100.00
70815;BME280;58428;49.478;10.986;2023-01-26T04:35:06;98859.69;;;1.11;100.00
70815;BME280;58428;49.478;10.986;2023-01-26T04:37:32;98849.81;;;1.07;100.00
70815;BME280;58428;49.478;10.986;2023-01-26T04:39:59;98856.22;;;1.10;100.00
70815;BME280;58428;49.478;10.986;2023-01-26T04:42:25;98862.69;;;1.19;100.00
70815;BME280;58428;49.478;10.986;2023-01-26T04:44:51;98858.69;;;1.22;100.00
70815;BME280;58428;49.478;10.986;2023-01-26T04:47:18;98857.06;;;1.16;100.00
70815;BME280;58428;49.478;10.986;2023-01-26T04:49:44;98848.50;;;1.14;100.00
70815;BME280;58428;49.478;10.986;2023-01-26T04:52:10;98844.06;;;1.24;100.00
70815;BME280;58428;49.478;10.986;2023-01-26T04:54:35;98846.75;;;1.24;100.00
70815;BME280;58428;49.478;10.986;2023-01-26T04:57:01;98849.59;;;1.13;100.00
70815;BME280;58428;49.478;10.986;2023-01-26T04:59:26;98849.59;;;1.13;100.00
70815;BME280;58428;49.478;10.986;2023-01-26T05:01:52;98842.13;;;1.15;100.00
70815;BME280;58428;49.478;10.986;2023-01-26T05:04:18;98843.19;;;1.14;100.00
70815;BME280;58428;49.478;10.986;2023-01-26T05:06:45;98843.19;;;1.14;100.00
70815;BME280;58428;49.478;10.986;2023-01-26T05:09:10;98837.84;;;1.09;100.00
70815;BME280;58428;49.478;10.986;2023-01-26T05:11:36;98844.47;;;1.07;100.00
70815;BME280;58428;49.478;10.986;2023-01-26T05:14:02;98844.56;;;1.16;100.00
70815;BME280;58428;49.478;10.986;2023-01-26T05:16:28;98843.28;;;1.29;100.00
70815;BME280;58428;49.478;10.986;2023-01-26T05:18:54;98847.38;;;1.41;100.00
70815;BME280;58428;49.478;10.986;2023-01-26T05:21:19;98844.75;;;1.46;100.00
70815;BME280;58428;49.478;10.986;2023-01-26T05:23:45;98839.16;;;1.47;100.00
70815;BME280;58428;49.478;10.986;2023-01-26T05:26:10;98850.44;;;1.59;100.00
70815;BME280;58428;49.478;10.986;2023-01-26T05:28:37;98851.81;;;1.67;100.00
70815;BME280;58428;49.478;10.986;2023-01-26T05:31:02;98851.03;;;1.71;100.00
70815;BME280;58428;49.478;10.986;2023-01-26T05:33:28;98851.03;;;1.76;100.00
70815;BME280;58428;49.478;10.986;2023-01-26T05:35:53;98846.53;;;1.82;100.00
70815;BME280;58428;49.478;10.986;2023-01-26T05:38:20;98856.66;;;1.80;100.00
70815;BME280;58428;49.478;10.986;2023-01-26T05:40:45;98856.41;;;1.81;100.00
70815;BME280;58428;49.478;10.986;2023-01-26T05:43:11;98852.59;;;1.67;100.00
70815;BME280;58428;49.478;10.986;2023-01-26T05:45:38;98857.03;;;1.52;100.00
70815;BME280;58428;49.478;10.986;2023-01-26T05:48:03;98863.16;;;1.52;100.00
70815;BME280;58428;49.478;10.986;2023-01-26T05:50:29;98858.97;;;1.61;100.00
70815;BME280;58428;49.478;10.986;2023-01-26T05:52:56;98856.06;;;1.63;100.00
70815;BME280;58428;49.478;10.986;2023-01-26T05:55:28;98859.41;;;1.48;100.00
70815;BME280;58428;49.478;10.986;2023-01-26T05:57:54;98860.50;;;1.52;100.00
70815;BME280;58428;49.478;10.986;2023-01-26T06:00:21;98850.13;;;1.56;100.00
70815;BME280;58428;49.478;10.986;2023-01-26T06:02:47;98850.94;;;1.56;100.00
70815;BME280;58428;49.478;10.986;2023-01-26T06:05:15;98854.31;;;1.42;100.00
70815;BME280;58428;49.478;10.986;2023-01-26T06:07:41;98851.66;;;1.47;100.00
70815;BME280;58428;49.478;10.986;2023-01-26T06:10:07;98857.53;;;1.44;100.00
70815;BME280;58428;49.478;10.986;2023-01-26T06:12:33;98854.56;;;1.36;100.00
70815;BME280;58428;49.478;10.986;2023-01-26T06:15:04;98848.84;;;1.22;100.00
70815;BME280;58428;49.478;10.986;2023-01-26T06:17:30;98857.28;;;1.09;100.00
70815;BME280;58428;49.478;10.986;2023-01-26T06:19:56;98854.00;;;0.98;100.00
70815;BME280;58428;49.478;10.986;2023-01-26T06:22:22;98850.31;;;1.04;100.00
70815;BME280;58428;49.478;10.986;2023-01-26T06:24:54;98858.63;;;1.12;100.00
70815;BME280;58428;49.478;10.986;2023-01-26T06:27:19;98854.38;;;1.16;100.00
70815;BME280;58428;49.478;10.986;2023-01-26T06:29:45;98855.22;;;1.21;100.00
70815;BME280;58428;49.478;10.986;2023-01-26T06:32:17;98862.44;;;1.21;100.00
70815;BME280;58428;49.478;10.986;2023-01-26T06:34:45;98856.66;;;0.98;100.00
70815;BME280;58428;49.478;10.986;2023-01-26T06:37:10;98859.38;;;1.03;100.00
70815;BME280;58428;49.478;10.986;2023-01-26T06:39:38;98863.22;;;1.16;100.00
70815;BME280;58428;49.478;10.986;2023-01-26T06:42:06;98861.56;;;1.10;100.00
70815;BME280;58428;49.478;10.986;2023-01-26T06:44:31;98855.72;;;1.13;100.00
70815;BME280;58428;49.478;10.986;2023-01-26T06:46:58;98862.59;;;1.09;100.00
70815;BME280;58428;49.478;10.986;2023-01-26T06:49:25;98857.09;;;1.21;100.00
70815;BME280;58428;49.478;10.986;2023-01-26T06:52:02;98853.72;;;1.30;100.00
70815;BME280;58428;49.478;10.986;2023-01-26T06:54:30;98854.50;;;1.31;100.00
70815;BME280;58428;49.478;10.986;2023-01-26T06:56:58;98847.84;;;1.28;100.00
70815;BME280;58428;49.478;10.986;2023-01-26T06:59:25;98848.03;;;1.22;100.00
70815;BME280;58428;49.478;10.986;2023-01-26T07:01:58;98857.22;;;1.36;100.00
70815;BME280;58428;49.478;10.986;2023-01-26T07:04:26;98847.19;;;1.52;100.00
70815;BME280;58428;49.478;10.986;2023-01-26T07:06:52;98852.63;;;1.31;100.00
70815;BME280;58428;49.478;10.986;2023-01-26T07:09:20;98852.94;;;1.35;100.00
70815;BME280;58428;49.478;10.986;2023-01-26T07:11:46;98855.31;;;1.31;100.00
70815;BME280;58428;49.478;10.986;2023-01-26T07:14:11;98852.28;;;1.18;100.00
70815;BME280;58428;49.478;10.986;2023-01-26T07:16:37;98852.81;;;1.20;100.00
70815;BME280;58428;49.478;10.986;2023-01-26T07:19:13;98853.59;;;1.15;100.00
70815;BME280;58428;49.478;10.986;2023-01-26T07:21:41;98851.69;;;1.11;100.00
70815;BME280;58428;49.478;10.986;2023-01-26T07:24:08;98852.03;;;1.19;100.00
70815;BME280;58428;49.478;10.986;2023-01-26T07:26:38;98843.53;;;1.27;100.00
70815;BME280;58428;49.478;10.986;2023-01-26T07:29:05;98852.28;;;1.18;100.00
70815;BME280;58428;49.478;10.986;2023-01-26T07:31:31;98856.22;;;1.10;100.00
70815;BME280;58428;49.478;10.986;2023-01-26T07:33:59;98852.75;;;1.10;100.00
70815;BME280;58428;49.478;10.986;2023-01-26T07:36:27;98849.59;;;1.13;100.00
70815;BME280;58428;49.478;10.986;2023-01-26T07:38:53;98853.84;;;1.14;100.00
70815;BME280;58428;49.478;10.986;2023-01-26T07:41:27;98845.59;;;1.15;100.00
70815;BME280;58428;49.478;10.986;2023-01-26T07:44:08;98849.06;;;1.16;100.00
70815;BME280;58428;49.478;10.986;2023-01-26T07:46:34;98845.84;;;1.14;100.00
70815;BME280;58428;49.478;10.986;2023-01-26T07:48:59;98848.25;;;1.15;100.00
70815;BME280;58428;49.478;10.986;2023-01-26T07:51:34;98842.13;;;1.15;100.00
70815;BME280;58428;49.478;10.986;2023-01-26T07:54:00;98841.28;;;1.09;100.00
70815;BME280;58428;49.478;10.986;2023-01-26T07:56:37;98832.56;;;1.19;100.00
70815;BME280;58428;49.478;10.986;2023-01-26T07:59:04;98828.59;;;1.21;100.00
70815;BME280;58428;49.478;10.986;2023-01-26T08:01:50;98832.81;;;1.12;100.00
70815;BME280;58428;49.478;10.986;2023-01-26T08:04:27;98835.56;;;1.27;100.00
70815;BME280;58428;49.478;10.986;2023-01-26T08:06:58;98835.34;;;1.34;100.00
70815;BME280;58428;49.478;10.986;2023-01-26T08:09:46;98834.66;;;1.53;100.00
70815;BME280;58428;49.478;10.986;2023-01-26T08:12:17;98831.97;;;1.48;100.00
70815;BME280;58428;49.478;10.986;2023-01-26T08:14:47;98834.38;;;1.49;100.00
70815;BME280;58428;49.478;10.986;2023-01-26T08:17:13;98836.16;;;1.34;100.00
70815;BME280;58428;49.478;10.986;2023-01-26T08:19:44;98838.56;;;1.41;100.00
70815;BME280;58428;49.478;10.986;2023-01-26T08:22:11;98844.16;;;1.39;100.00
70815;BME280;58428;49.478;10.986;2023-01-26T08:24:41;98843.59;;;1.32;100.00
70815;BME280;58428;49.478;10.986;2023-01-26T08:27:07;98846.00;;;1.34;100.00
70815;BME280;58428;49.478;10.986;2023-01-26T08:29:42;98843.59;;;1.32;100.00
70815;BME280;58428;49.478;10.986;2023-01-26T08:32:14;98851.00;;;1.25;100.00
70815;BME280;58428;49.478;10.986;2023-01-26T08:34:49;98839.59;;;1.30;100.00
70815;BME280;58428;49.478;10.986;2023-01-26T08:37:17;98835.50;;;1.17;100.00
70815;BME280;58428;49.478;10.986;2023-01-26T08:40:07;98832.50;;;1.09;100.00
70815;BME280;58428;49.478;10.986;2023-01-26T08:42:43;98845.28;;;1.12;100.00
70815;BME280;58428;49.478;10.986;2023-01-26T08:45:11;98838.75;;;1.24;100.00
70815;BME280;58428;49.478;10.986;2023-01-26T08:47:36;98835.34;;;1.34;100.00
70815;BME280;58428;49.478;10.986;2023-01-26T08:50:04;98840.03;;;1.22;100.00
70815;BME280;58428;49.478;10.986;2023-01-26T08:52:37;98835.00;;;1.20;100.00
70815;BME280;58428;49.478;10.986;2023-01-26T08:55:08;98845.09;;;1.18;100.00
70815;BME280;58428;49.478;10.986;2023-01-26T08:57:42;98840.81;;;1.17;100.00
70815;BME280;58428;49.478;10.986;2023-01-26T09:00:17;98838.69;;;1.14;100.00
70815;BME280;58428;49.478;10.986;2023-01-26T09:02:42;98832.28;;;1.15;100.00
70815;BME280;58428;49.478;10.986;2023-01-26T09:08:29;98835.00;;;1.25;100.00
70815;BME280;58428;49.478;10.986;2023-01-26T09:11:06;98833.66;;;1.23;100.00
70815;BME280;58428;49.478;10.986;2023-01-26T09:13:43;98832.63;;;1.29;100.00
70815;BME280;58428;49.478;10.986;2023-01-26T09:16:21;98834.16;;;1.20;100.00
70815;BME280;58428;49.478;10.986;2023-01-26T09:18:51;98835.72;;;1.16;100.00
70815;BME280;58428;49.478;10.986;2023-01-26T09:21:42;98840.41;;;1.35;100.00
70815;BME280;58428;49.478;10.986;2023-01-26T09:24:08;98846.25;;;1.32;100.00
70815;BME280;58428;49.478;10.986;2023-01-26T09:27:07;98849.66;;;1.23;100.00
70815;BME280;58428;49.478;10.986;2023-01-26T09:29:41;98851.44;;;1.12;100.00
70815;BME280;58428;49.478;10.986;2023-01-26T09:32:27;98861.34;;;1.17;100.00
70815;BME280;58428;49.478;10.986;2023-01-26T09:35:01;98857.13;;;1.26;100.00
70815;BME280;58428;49.478;10.986;2023-01-26T09:37:37;98858.25;;;1.35;100.00
70815;BME280;58428;49.478;10.986;2023-01-26T09:40:27;98858.88;;;1.46;100.00
70815;BME280;58428;49.478;10.986;2023-01-26T09:48:43;98856.84;;;1.22;100.00
70815;BME280;58428;49.478;10.986;2023-01-26T09:53:54;98862.53;;;1.36;100.00
70815;BME280;58428;49.478;10.986;2023-01-26T09:56:30;98854.97;;;1.23;100.00
70815;BME280;58428;49.478;10.986;2023-01-26T10:01:41;98860.44;;;1.43;100.00
70815;BME280;58428;49.478;10.986;2023-01-26T10:05:00;98859.91;;;1.41;100.00
70815;BME280;58428;49.478;10.986;2023-01-26T10:07:27;98850.56;;;1.43;100.00
70815;BME280;58428;49.478;10.986;2023-01-26T10:09:56;98851.16;;;1.50;100.00
70815;BME280;58428;49.478;10.986;2023-01-26T10:12:36;98846.13;;;1.53;100.00
70815;BME280;58428;49.478;10.986;2023-01-26T10:15:27;98848.19;;;1.42;100.00
70815;BME280;58428;49.478;10.986;2023-01-26T10:18:31;98848.41;;;1.35;100.00
70815;BME280;58428;49.478;10.986;2023-01-26T10:21:12;98853.03;;;1.49;100.00
70815;BME280;58428;49.478;10.986;2023-01-26T10:23:49;98847.38;;;1.41;100.00
70815;BME280;58428;49.478;10.986;2023-01-26T10:26:45;98843.16;;;1.50;100.00
70815;BME280;58428;49.478;10.986;2023-01-26T10:29:25;98848.72;;;1.44;100.00
70815;BME280;58428;49.478;10.986;2023-01-26T10:31:53;98851.66;;;1.47;100.00
70815;BME280;58428;49.478;10.986;2023-01-26T10:34:28;98847.09;;;1.38;100.00
70815;BME280;58428;49.478;10.986;2023-01-26T10:37:29;98841.97;;;1.31;100.00
70815;BME280;58428;49.478;10.986;2023-01-26T10:40:21;98844.38;;;1.33;100.00
70815;BME280;58428;49.478;10.986;2023-01-26T10:46:21;98834.63;;;1.48;100.00
70815;BME280;58428;49.478;10.986;2023-01-26T10:57:41;98825.78;;;1.43;100.00
70815;BME280;58428;49.478;10.986;2023-01-26T11:00:32;98827.38;;;1.39;100.00
70815;BME280;58428;49.478;10.986;2023-01-26T11:03:17;98826.31;;;1.40;100.00
70815;BME280;58428;49.478;10.986;2023-01-26T11:06:21;98814.75;;;1.24;100.00
70815;BME280;58428;49.478;10.986;2023-01-26T11:08:54;98825.19;;;1.31;100.00
70815;BME280;58428;49.478;10.986;2023-01-26T11:11:32;98818.47;;;1.23;100.00
70815;BME280;58428;49.478;10.986;2023-01-26T11:14:17;98823.31;;;1.31;100.00
70815;BME280;58428;49.478;10.986;2023-01-26T11:19:34;98813.47;;;1.32;100.00
70815;BME280;58428;49.478;10.986;2023-01-26T11:22:07;98808.34;;;1.25;100.00
70815;BME280;58428;49.478;10.986;2023-01-26T11:28:17;98802.28;;;1.35;100.00
70815;BME280;58428;49.478;10.986;2023-01-26T11:31:28;98795.16;;;1.45;100.00
70815;BME280;58428;49.478;10.986;2023-01-26T11:34:12;98790.09;;;1.44;100.00
70815;BME280;58428;49.478;10.986;2023-01-26T11:36:58;98799.47;;;1.56;100.00
70815;BME280;58428;49.478;10.986;2023-01-26T11:39:46;98790.16;;;1.58;100.00
70815;BME280;58428;49.478;10.986;2023-01-26T11:48:05;98772.59;;;1.67;100.00
70815;BME280;58428;49.478;10.986;2023-01-26T11:50:45;98765.22;;;1.89;100.00
70815;BME280;58428;49.478;10.986;2023-01-26T12:01:25;98759.06;;;1.79;100.00
70815;BME280;58428;49.478;10.986;2023-01-26T12:04:01;98749.06;;;1.54;100.00
70815;BME280;58428;49.478;10.986;2023-01-26T12:06:37;98765.09;;;1.64;100.00
70815;BME280;58428;49.478;10.986;2023-01-26T12:09:37;98768.31;;;1.61;100.00
70815;BME280;58428;49.478;10.986;2023-01-26T12:14:57;98755.69;;;1.47;100.00
70815;BME280;58428;49.478;10.986;2023-01-26T12:20:30;98751.53;;;1.61;100.00
70815;BME280;58428;49.478;10.986;2023-01-26T12:23:07;98745.91;;;1.62;100.00
70815;BME280;58428;49.478;10.986;2023-01-26T12:33:11;98746.56;;;1.28;100.00
70815;BME280;58428;49.478;10.986;2023-01-26T12:39:18;98731.97;;;1.41;100.00
70815;BME280;58428;49.478;10.986;2023-01-26T12:42:19;98719.72;;;1.45;100.00
70815;BME280;58428;49.478;10.986;2023-01-26T12:47:37;98722.38;;;1.40;100.00
70815;BME280;58428;49.478;10.986;2023-01-26T12:50:28;98719.38;;;1.31;100.00
70815;BME280;58428;49.478;10.986;2023-01-26T12:56:03;98724.22;;;1.34;100.00
70815;BME280;58428;49.478;10.986;2023-01-26T12:58:36;98718.34;;;1.32;100.00
70815;BME280;58428;49.478;10.986;2023-01-26T13:01:17;98714.88;;;1.32;100.00
70815;BME280;58428;49.478;10.986;2023-01-26T13:03:59;98709.75;;;1.25;100.00
70815;BME280;58428;49.478;10.986;2023-01-26T13:06:45;98714.34;;;1.35;100.00
70815;BME280;58428;49.478;10.986;2023-01-26T13:09:28;98716.75;;;1.36;100.00
70815;BME280;58428;49.478;10.986;2023-01-26T13:12:00;98711.72;;;1.45;100.00
70815;BME280;58428;49.478;10.986;2023-01-26T13:14:58;98709.03;;;1.40;100.00
70815;BME280;58428;49.478;10.986;2023-01-26T13:19:54;98698.66;;;1.48;100.00
70815;BME280;58428;49.478;10.986;2023-01-26T13:30:56;98708.97;;;1.25;100.00
70815;BME280;58428;49.478;10.986;2023-01-26T13:33:31;98714.81;;;1.22;100.00
70815;BME280;58428;49.478;10.986;2023-01-26T13:35:57;98719.66;;;1.30;100.00
70815;BME280;58428;49.478;10.986;2023-01-26T13:38:32;98714.59;;;1.33;100.00
70815;BME280;58428;49.478;10.986;2023-01-26T13:41:05;98717.25;;;1.28;100.00
70815;BME280;58428;49.478;10.986;2023-01-26T13:44:12;98709.84;;;1.40;100.00
70815;BME280;58428;49.478;10.986;2023-01-26T13:46:54;98706.63;;;1.38;100.00
70815;BME280;58428;49.478;10.986;2023-01-26T13:49:41;98705.59;;;1.44;100.00
70815;BME280;58428;49.478;10.986;2023-01-26T13:52:28;98708.78;;;1.46;100.00
70815;BME280;58428;49.478;10.986;2023-01-26T13:54:55;98697.88;;;1.52;100.00
70815;BME280;58428;49.478;10.986;2023-01-26T13:57:29;98691.00;;;1.66;100.00
70815;BME280;58428;49.478;10.986;2023-01-26T13:59:57;98695.97;;;1.38;100.00
70815;BME280;58428;49.478;10.986;2023-01-26T14:02:26;98702.16;;;1.53;100.00
70815;BME280;58428;49.478;10.986;2023-01-26T14:04:54;98704.06;;;1.63;100.00
70815;BME280;58428;49.478;10.986;2023-01-26T14:07:27;98708.28;;;1.54;100.00
70815;BME280;58428;49.478;10.986;2023-01-26T14:15:23;98699.25;;;1.60;100.00
70815;BME280;58428;49.478;10.986;2023-01-26T14:18:02;98708.84;;;1.56;100.00
70815;BME280;58428;49.478;10.986;2023-01-26T14:20:45;98702.44;;;1.62;100.00
70815;BME280;58428;49.478;10.986;2023-01-26T14:23:25;98709.41;;;1.68;100.00
70815;BME280;58428;49.478;10.986;2023-01-26T14:26:32;98707.53;;;1.63;100.00
70815;BME280;58428;49.478;10.986;2023-01-26T14:29:42;98707.72;;;1.47;100.00
70815;BME280;58428;49.478;10.986;2023-01-26T14:32:18;98711.50;;;1.56;100.00
70815;BME280;58428;49.478;10.986;2023-01-26T14:34:59;98707.47;;;1.48;100.00
70815;BME280;58428;49.478;10.986;2023-01-26T14:37:27;98717.03;;;1.40;100.00
70815;BME280;58428;49.478;10.986;2023-01-26T14:40:22;98717.63;;;1.51;100.00
70815;BME280;58428;49.478;10.986;2023-01-26T14:42:52;98720.50;;;1.40;100.00
70815;BME280;58428;49.478;10.986;2023-01-26T14:45:27;98729.53;;;1.34;100.00
70815;BME280;58428;49.478;10.986;2023-01-26T14:48:09;98733.41;;;1.12;100.00
70815;BME280;58428;49.478;10.986;2023-01-26T14:50:46;98733.50;;;1.27;100.00
70815;BME280;58428;49.478;10.986;2023-01-26T14:53:23;98738.78;;;1.17;100.00
70815;BME280;58428;49.478;10.986;2023-01-26T14:55:50;98739.25;;;1.09;100.00
70815;BME280;58428;49.478;10.986;2023-01-26T14:58:31;98733.69;;;1.15;100.00
70815;BME280;58428;49.478;10.986;2023-01-26T15:00:59;98734.53;;;1.26;100.00